Create Custom Reports and Graphics: Custom Report

Alpine-Scott Top 8120'

Current Conditions

5/5/21 6:30 PM (-07:00)
Updated Every 15 Minutes
Temp 56.2 °F   2.0
RH 52 %   7
Wet Bulb 46.7 °F   3.1
Dew Pt 39.1 °F   5.2
Wind Spd 15.6 mph   8.3
Wind Dir SSW | 204 °
Wind Gust 22.4 mph   9.9
Daily Min Temp 43.1 °F   2.3
Daily Max Temp 64.0 °F   5.2

Last 6 Hours

Alpine-Scott Top 8120'

15 Minute Data | America/Los_Angeles
as of 5/5/21 6:43 PM PDT
Date & Time Temp (°F) RH (%) Dew Pt (°F) Wet Bulb (°F) Wind Dir (°) Wind Spd (mph) Wind Gust (mph) WindChill (°F) Daily Min Temp (°F) Daily Max Temp (°F)
5/5/21 - 1830 56.2 52 39.1 46.7 SSW | 204 15.6 22.4 56.2 43.1 64.0
5/5/21 - 1815 57.3 50 39.0 47.2 SSW | 203 14.6 23.4 57.3 43.1 64.0
5/5/21 - 1800 57.7 49 38.6 47.1 SSW | 203 12.9 17.8 57.7 43.1 64.0
5/5/21 - 1745 58.5 47 38.1 47.2 SSW | 205 14.1 22.3 58.5 43.1 64.0
5/5/21 - 1730 58.6 44 37.0 46.8 SSW | 202 12.7 20.7 58.6 43.1 64.0
5/5/21 - 1715 60.5 42 37.2 47.7 SSW | 203 12.6 21.0 60.5 43.1 64.0
5/5/21 - 1700 60.5 42 37.3 47.7 SSW | 212 10.8 16.2 60.5 43.1 64.0
5/5/21 - 1645 60.1 43 37.4 47.6 SSW | 204 11.2 19.8 60.1 43.1 64.0
5/5/21 - 1630 60.2 43 37.6 47.7 SSW | 204 9.8 17.1 60.2 43.1 64.0
5/5/21 - 1615 60.0 43 37.5 47.6 SSW | 204 10.1 15.2 60.0 43.1 64.0
5/5/21 - 1600 60.6 41 36.7 47.5 SSW | 209 10.2 15.3 60.6 43.1 64.0
5/5/21 - 1545 61.7 40 37.3 48.2 SSW | 208 9.8 14.4 61.7 43.1 64.0
5/5/21 - 1530 60.5 40 36.2 47.3 SSW | 204 11.5 18.3 60.5 43.1 64.0
5/5/21 - 1515 61.0 40 36.4 47.5 SSW | 206 10.7 17.8 61.0 43.1 64.0
5/5/21 - 1500 60.4 38 34.8 46.7 SSW | 208 10.6 17.4 60.4 43.1 64.0
5/5/21 - 1445 62.1 36 34.9 47.4 SW | 218 9.9 15.8 62.1 43.1 64.0
5/5/21 - 1430 60.5 33 31.4 45.4 SW | 218 8.7 14.3 60.5 43.1 64.0
5/5/21 - 1415 61.9 32 31.7 46.1 SSW | 208 7.9 15.0 61.9 43.1 64.0
5/5/21 - 1400 61.1 30 29.2 44.9 SW | 228 5.8 9.9 61.1 43.1 64.0
5/5/21 - 1345 63.1 30 30.9 46.3 WSW | 252 4.9 12.5 63.1 43.1 64.0
5/5/21 - 1330 61.2 30 29.4 45.0 SSW | 203 4.2 8.4 61.2 43.1 63.5
5/5/21 - 1315 62.4 29 30.0 45.8 SSW | 212 3.8 8.8 62.4 43.1 63.5
5/5/21 - 1300 60.5 34 31.9 45.6 SSW | 193 4.6 9.9 60.5 43.1 61.5
5/5/21 - 1245 59.4 35 31.9 45.1 SSW | 194 4.3 8.8 59.4 43.1 60.8
Max 63.1 52 39.1 48.2 - 15.6 23.4 63.1 43.1 64.0
Avg 60.3 39 35.1 46.8 - 9.6 15.9 60.3 - -
Min 56.2 29 29.2 44.9 - 3.8 8.4 56.2 43.1 60.8

Last 30 Days

Alpine-Scott Top 8120'

Daily Data | America/Los_Angeles
as of 5/5/21 6:43 PM PDT
Date Daily Max Temp (°F) Time of Max Temp Daily Min Temp (°F) Time of Min Temp Wind Spd (mph) Wind Gust (mph) Wind Gst Dir (°) Wind Gst Time Wet Bulb (°F) WetB Hrs <28F (hrs) Max RH (%) Min RH (%) Bat Volt Min Day (V)
5/4/21 58.8 1356 40.8 0610 5.2 23.7 W | 268 1731 38.0 0.0 56 29 11.4
5/3/21 57.1 1725 32.6 0615 5.5 20.3 NE | 56 0135 33.8 0.0 68 25 11.4
5/2/21 53.6 1406 33.3 0623 6.4 22.6 NE | 35 2218 35.7 0.0 96 35 11.4
5/1/21 51.0 1336 38.8 2321 16.4 41.1 SW | 220 0235 35.3 0.0 82 14 11.4
4/30/21 59.9 1505 48.0 2311 15.6 28.2 SW | 218 2029 39.9 0.0 43 21 11.4
4/29/21 67.1 1414 43.9 0057 5.9 21.0 ESE | 108 0342 40.8 0.0 48 23 11.4
4/28/21 59.1 1741 29.3 0528 4.2 20.4 E | 100 0017 32.0 8.2 71 14 11.3
4/27/21 39.2 1401 21.6 0255 8.9 29.5 NNE | 24 1642 26.2 15.4 96 47 11.3
4/26/21 29.9 1556 16.2 0244 11.3 28.3 SSW | 199 0543 20.5 23.3 96 65 11.3
4/25/21 27.3 0314 18.7 2354 25.4 60.2 SW | 224 0449 24.7 24.0 97 84 11.3
4/24/21 35.8 0001 26.0 2035 28.4 54.8 SW | 226 2318 28.3 11.8 96 61 11.4
4/23/21 48.2 1342 35.2 2353 11.0 39.0 WSW | 243 0001 34.4 0.0 93 40 11.4
4/22/21 47.3 1432 35.7 0240 7.7 29.7 WNW | 283 1546 32.3 3.6 75 24 11.4
4/21/21 50.3 1446 30.3 0617 5.4 18.1 NNE | 27 1646 32.2 3.5 86 25 11.4
4/20/21 49.7 1348 33.4 2358 7.7 29.4 SSW | 206 1225 34.2 0.0 85 25 11.4
4/19/21 55.2 1421 42.9 0644 5.3 20.3 SW | 214 1753 36.6 0.0 55 26 11.4
4/18/21 58.3 1710 34.5 0626 5.1 20.3 E | 97 0737 32.8 7.1 46 15 11.4
4/17/21 46.4 1632 29.4 0630 8.4 27.2 NE | 54 0406 29.1 9.5 63 26 11.3
4/16/21 48.0 1617 29.8 0643 4.4 16.4 NE | 50 2345 30.6 3.5 80 32 11.3
4/15/21 43.0 1327 25.1 0542 3.8 11.9 WNW | 293 1619 28.7 9.3 88 40 11.3
4/14/21 34.0 1408 21.7 0646 4.8 14.7 NNE | 17 1630 25.8 18.8 96 72 11.3
4/13/21 38.7 1215 24.7 2335 14.9 45.6 SW | 221 0716 28.4 8.9 96 44 11.3
4/12/21 53.5 1553 30.5 0654 5.6 22.8 WSW | 246 1858 31.8 6.6 66 27 11.3
4/11/21 54.2 1526 36.4 2359 4.1 15.9 WSW | 241 1610 33.5 0.9 55 15 11.3
4/10/21 52.4 1528 34.1 0305 5.2 18.1 SW | 223 1731 32.3 6.1 54 20 11.3
4/9/21 46.3 1405 35.2 0544 7.9 23.0 SW | 215 1322 32.6 0.0 75 33 11.4
4/8/21 45.2 1540 30.6 0718 8.2 22.3 SW | 232 1523 29.8 9.6 65 33 11.3
4/7/21 41.8 1314 31.9 2323 18.3 42.8 SSW | 210 1621 30.6 6.8 91 26 11.4
4/6/21 50.2 1513 33.5 0540 4.7 19.5 SW | 220 1631 33.0 2.8 84 27 11.3
4/5/21 43.1 1617 27.6 0900 15.8 43.2 SSW | 203 0303 31.3 1.7 95 34 11.4
Max 67.1 - 48.0 - 28.4 60.2 - - 40.8 24.0 97 84 11.4
Avg - - - - 9.4 27.7 - - 31.8 - - - -
Min 27.3 - 16.2 - 3.8 11.9 - - 20.5 0.0 43 14 11.3
Calm: 0.0%
Calm: 1.0%